This is the latest recevied weather packets stored in our database for station/object KC9MWQ-13. If no packets are shown the sender has not sent any weather packets the latest 10 day(s).
| Time | Temp. | Humidity | Pressure | Rain* | Wind** | Luminosity | Snow |
|---|---|---|---|---|---|---|---|
| 1777851725 | 11.67° C | 84% | 1012 hPa | 0 mm | - | 12 W/m² | - |
| 1777851421 | 11.67° C | 84% | 1011.8 hPa | 0 mm | - | 23 W/m² | - |
| 1777851117 | 11.67° C | 84% | 1011.9 hPa | 0 mm | - | 22 W/m² | - |
| 1777850814 | 11.67° C | 83% | 1012 hPa | 0 mm | - | 26 W/m² | - |
| 1777850511 | 11.67° C | 83% | 1012 hPa | 0 mm | - | 35 W/m² | - |
| 1777850210 | 11.67° C | 83% | 1011.9 hPa | 0 mm | - | 46 W/m² | - |
| 1777849905 | 12.22° C | 82% | 1012 hPa | 0 mm | - | 48 W/m² | - |
| 1777849602 | 12.22° C | 81% | 1011.9 hPa | 0 mm | - | 54 W/m² | - |
| 1777849299 | 12.22° C | 81% | 1011.9 hPa | 0 mm | - | 72 W/m² | - |
| 1777848997 | 12.22° C | 81% | 1012.3 hPa | 0 mm | - | 89 W/m² | - |
| 1777848696 | 12.78° C | 81% | 1012 hPa | 0 mm | - | 111 W/m² | - |
| 1777848394 | 12.78° C | 80% | 1012 hPa | 0 mm | - | 164 W/m² | - |
| 1777848092 | 12.78° C | 81% | 1012.2 hPa | 0 mm | - | 205 W/m² | - |
| 1777847790 | 12.22° C | 83% | 1012.4 hPa | 0 mm | - | 208 W/m² | - |
| 1777847486 | 11.67° C | 85% | 1012.3 hPa | 0 mm | - | 106 W/m² | - |
| 1777847183 | 11.67° C | 82% | 1012.5 hPa | 0 mm | - | 110 W/m² | - |
| 1777846881 | 11.67° C | 83% | 1012.3 hPa | 0 mm | - | 170 W/m² | - |
| 1777846579 | 12.22° C | 83% | 1012.3 hPa | 0 mm | - | 197 W/m² | - |
| 1777846276 | 11.67° C | 86% | 1012.3 hPa | 0 mm | - | 309 W/m² | - |
| 1777845973 | 11.11° C | 88% | 1012.4 hPa | 0 mm | - | 182 W/m² | - |
| 1777845669 | 11.11° C | 88% | 1012.6 hPa | 0 mm | - | 134 W/m² | - |
| 1777845367 | 11.11° C | 90% | 1012.6 hPa | 0 mm | - | 123 W/m² | - |
| 1777845063 | 10.56° C | 92% | 1012.4 hPa | 0 mm | - | 122 W/m² | - |
| 1777844762 | 10.56° C | 93% | 1012.6 hPa | 0 mm | - | 106 W/m² | - |
| 1777844458 | 10.56° C | 93% | 1012.5 hPa | 0 mm | - | 138 W/m² | - |
* Rain latest hour (hover to see other rain measurements)
** Current wind speed in m/s (hover to see current wind gust speed)